• Join FlightAware (Why Join?)
  • Login
  • US Flag 
 
05:59PM EST


 

Airport Tracker/Info


-or-


 

Live Flight TrackerFlight Track Log ✈ BER6706 ✈ 24-Apr-2013 ✈ EDDN / NUE - EDDH / HAM

Flight Track Log - Related Links

Times and Time Zones

All times are in EDT time to prevent confusion due to time zone crossing. See the BER6706 flight status page for this flight to view local times or setup timezone preferences in your user account.

Time Position Orientation Groundspeed Altitude Reporting Facility
EDT Latitude Longitude Course Direction KTS MPH feet Rate Location/Type
12:57AM 51.8790 10.4749 351° North  Level Estimated
12:58AM 51.9824 10.4473 351° North  Level Estimated
12:59AM 52.0858 10.4195 351° North  Level Estimated
01:00AM 52.1893 10.3916 351° North  Level Estimated
01:01AM 52.2926 10.3635 351° North  Level Estimated
01:02AM 52.3960 10.3353 351° North  Level Estimated
01:03AM 52.4994 10.3070 351° North  Level Estimated
01:04AM 52.6028 10.2786 351° North  Level Estimated
01:05AM 52.7062 10.2500 350° North  Level Estimated
01:06AM 52.8096 10.2213 350° North  Level Estimated
01:07AM 52.9129 10.1924 350° North  Level Estimated
01:08AM 53.0163 10.1634 350° North  Level Estimated
01:09AM 53.1196 10.1343 350° North  Level Estimated
01:10AM 53.2229 10.1050 350° North  Level Estimated
01:11AM 53.3263 10.0756 350° North  Level Estimated
01:12AM 53.4296 10.0461 350° North  Level Estimated
01:13AM 53.5329 10.0164 350° North  Level Estimated
01:14AM 53.6304 9.9882 350° North  Level Estimated
01:15AM 53.6304 9.9882 230° Southwest  Level Estimated
01:16AM 53.6304 9.9882 230° Southwest  Level Estimated
01:17AM 53.6304 9.9882 230° Southwest  Level Estimated
01:18AM 53.6304 9.9882 230° Southwest  Level Estimated
01:19AM 53.6304 9.9882 230° Southwest  Level Estimated
01:20AM 53.6304 9.9882 230° Southwest  Level Estimated
01:21AM 53.6304 9.9882 230° Southwest  Level Estimated
01:22AM 53.6304 9.9882 230° Southwest  Level Estimated
01:23AM 53.6304 9.9882 230° Southwest  Level Estimated
01:24AM 53.6304 9.9882 230° Southwest  Level Estimated
01:25AM 53.6304 9.9882 230° Southwest  Level Estimated
01:26AM 53.6304 9.9882 230° Southwest  Level Estimated
01:27AM 53.6304 9.9882 230° Southwest  Level Estimated
01:28AM 53.6304 9.9882 230° Southwest  Level Estimated
01:29AM 53.6304 9.9882 230° Southwest  Level Estimated
01:30AM 53.6304 9.9882 230° Southwest  Level Estimated